Airport View

Enter AWOS ICAO identifier for current METAR.

ex. KFNL

K5H4 250035Z AUTO 34011KT 10SM BKN013 BKN045 BKN055 14/14 A2991 RMK AO2

25 May 2020 00:43

Frequency: 118.825

Phone: 701-324-2058

Other Area AWOS: KRUG - K46D - KDVL - K9D7

TAF KDVL 242348Z 2500/2524 34010KT P6SM VCSH BKN030 TEMPO 2502/2506 BKN012 FM251300 33008KT P6SM BKN040 FM252100 30007KT P6SM OVC050